sensor_id;sensor_type;location;lat;lon;timestamp;P1;durP1;ratioP1;P2;durP2;ratioP2
69551;SDS011;58993;45.320;11.864;2022-08-05T00:02:05;4.10;;;2.30;;
69551;SDS011;58993;45.320;11.864;2022-08-05T00:04:31;2.10;;;1.90;;
69551;SDS011;58993;45.320;11.864;2022-08-05T00:06:56;3.40;;;2.10;;
69551;SDS011;58993;45.320;11.864;2022-08-05T00:09:22;2.20;;;2.00;;
69551;SDS011;58993;45.320;11.864;2022-08-05T00:11:48;3.10;;;1.90;;
69551;SDS011;58993;45.320;11.864;2022-08-05T00:14:13;3.00;;;2.10;;
69551;SDS011;58993;45.320;11.864;2022-08-05T00:16:41;3.20;;;2.10;;
69551;SDS011;58993;45.320;11.864;2022-08-05T00:19:07;3.10;;;2.20;;
69551;SDS011;58993;45.320;11.864;2022-08-05T00:21:32;2.90;;;2.10;;
69551;SDS011;58993;45.320;11.864;2022-08-05T00:23:58;3.40;;;2.30;;
69551;SDS011;58993;45.320;11.864;2022-08-05T00:26:24;2.50;;;2.20;;
69551;SDS011;58993;45.320;11.864;2022-08-05T00:28:50;3.30;;;2.10;;
69551;SDS011;58993;45.320;11.864;2022-08-05T00:31:16;3.10;;;2.30;;
69551;SDS011;58993;45.320;11.864;2022-08-05T00:33:42;2.50;;;1.90;;
69551;SDS011;58993;45.320;11.864;2022-08-05T00:36:08;2.50;;;2.20;;
69551;SDS011;58993;45.320;11.864;2022-08-05T00:38:33;2.70;;;2.30;;
69551;SDS011;58993;45.320;11.864;2022-08-05T00:40:59;2.80;;;2.30;;
69551;SDS011;58993;45.320;11.864;2022-08-05T00:43:25;3.80;;;2.20;;
69551;SDS011;58993;45.320;11.864;2022-08-05T00:45:50;3.70;;;2.30;;
69551;SDS011;58993;45.320;11.864;2022-08-05T00:48:17;3.40;;;2.00;;
69551;SDS011;58993;45.320;11.864;2022-08-05T00:50:44;2.60;;;2.10;;
69551;SDS011;58993;45.320;11.864;2022-08-05T00:53:11;3.40;;;2.10;;
69551;SDS011;58993;45.320;11.864;2022-08-05T00:55:37;3.00;;;2.20;;
69551;SDS011;58993;45.320;11.864;2022-08-05T00:58:03;3.70;;;2.40;;
69551;SDS011;58993;45.320;11.864;2022-08-05T01:00:29;2.90;;;2.10;;
69551;SDS011;58993;45.320;11.864;2022-08-05T01:02:56;3.70;;;2.20;;
69551;SDS011;58993;45.320;11.864;2022-08-05T01:05:22;2.50;;;2.10;;
69551;SDS011;58993;45.320;11.864;2022-08-05T01:07:48;2.30;;;2.00;;
69551;SDS011;58993;45.320;11.864;2022-08-05T01:10:15;2.90;;;2.10;;
69551;SDS011;58993;45.320;11.864;2022-08-05T01:12:44;3.30;;;1.90;;
69551;SDS011;58993;45.320;11.864;2022-08-05T01:15:12;2.30;;;2.10;;
69551;SDS011;58993;45.320;11.864;2022-08-05T01:17:49;2.90;;;2.20;;
69551;SDS011;58993;45.320;11.864;2022-08-05T01:20:29;2.60;;;2.00;;
69551;SDS011;58993;45.320;11.864;2022-08-05T01:28:36;2.40;;;2.20;;
69551;SDS011;58993;45.320;11.864;2022-08-05T01:34:04;3.50;;;2.20;;
69551;SDS011;58993;45.320;11.864;2022-08-05T01:36:35;3.10;;;2.20;;
69551;SDS011;58993;45.320;11.864;2022-08-05T01:39:06;2.80;;;2.10;;
69551;SDS011;58993;45.320;11.864;2022-08-05T01:41:32;2.50;;;2.00;;
69551;SDS011;58993;45.320;11.864;2022-08-05T01:44:00;3.20;;;2.20;;
69551;SDS011;58993;45.320;11.864;2022-08-05T01:46:26;2.20;;;1.90;;
69551;SDS011;58993;45.320;11.864;2022-08-05T01:48:53;3.70;;;2.50;;
69551;SDS011;58993;45.320;11.864;2022-08-05T01:51:20;2.80;;;2.00;;
69551;SDS011;58993;45.320;11.864;2022-08-05T01:53:48;3.10;;;2.10;;
69551;SDS011;58993;45.320;11.864;2022-08-05T01:56:16;2.30;;;2.10;;
69551;SDS011;58993;45.320;11.864;2022-08-05T01:58:43;2.40;;;2.00;;
69551;SDS011;58993;45.320;11.864;2022-08-05T02:01:09;2.90;;;2.10;;
69551;SDS011;58993;45.320;11.864;2022-08-05T02:03:39;3.00;;;2.10;;
69551;SDS011;58993;45.320;11.864;2022-08-05T02:06:09;2.40;;;1.80;;
69551;SDS011;58993;45.320;11.864;2022-08-05T02:08:35;3.90;;;2.10;;
69551;SDS011;58993;45.320;11.864;2022-08-05T02:11:04;2.60;;;2.10;;
69551;SDS011;58993;45.320;11.864;2022-08-05T02:17:01;4.20;;;2.40;;
69551;SDS011;58993;45.320;11.864;2022-08-05T02:19:29;3.60;;;1.90;;
69551;SDS011;58993;45.320;11.864;2022-08-05T02:24:25;2.50;;;2.00;;
69551;SDS011;58993;45.320;11.864;2022-08-05T02:26:57;3.00;;;2.30;;
69551;SDS011;58993;45.320;11.864;2022-08-05T02:29:26;3.00;;;2.20;;
69551;SDS011;58993;45.320;11.864;2022-08-05T02:31:53;4.60;;;2.20;;
69551;SDS011;58993;45.320;11.864;2022-08-05T02:34:21;3.70;;;2.20;;
69551;SDS011;58993;45.320;11.864;2022-08-05T02:36:56;2.70;;;2.10;;
69551;SDS011;58993;45.320;11.864;2022-08-05T02:39:23;4.10;;;2.20;;
69551;SDS011;58993;45.320;11.864;2022-08-05T02:41:52;2.90;;;2.10;;
69551;SDS011;58993;45.320;11.864;2022-08-05T02:44:20;5.00;;;2.50;;
69551;SDS011;58993;45.320;11.864;2022-08-05T02:46:49;3.20;;;2.20;;
69551;SDS011;58993;45.320;11.864;2022-08-05T02:49:16;4.10;;;2.50;;
69551;SDS011;58993;45.320;11.864;2022-08-05T02:51:43;3.50;;;2.30;;
69551;SDS011;58993;45.320;11.864;2022-08-05T02:54:09;5.20;;;2.20;;
69551;SDS011;58993;45.320;11.864;2022-08-05T02:56:38;3.30;;;2.30;;
69551;SDS011;58993;45.320;11.864;2022-08-05T02:59:05;4.60;;;2.30;;
69551;SDS011;58993;45.320;11.864;2022-08-05T03:01:31;3.30;;;2.20;;
69551;SDS011;58993;45.320;11.864;2022-08-05T03:04:00;6.20;;;2.10;;
69551;SDS011;58993;45.320;11.864;2022-08-05T03:06:27;4.90;;;2.20;;
69551;SDS011;58993;45.320;11.864;2022-08-05T03:08:54;3.40;;;2.30;;
69551;SDS011;58993;45.320;11.864;2022-08-05T03:11:24;3.60;;;2.60;;
69551;SDS011;58993;45.320;11.864;2022-08-05T03:13:51;2.90;;;2.40;;
69551;SDS011;58993;45.320;11.864;2022-08-05T03:16:17;2.90;;;2.50;;
69551;SDS011;58993;45.320;11.864;2022-08-05T03:18:43;3.20;;;2.60;;
69551;SDS011;58993;45.320;11.864;2022-08-05T03:21:08;3.60;;;2.30;;
69551;SDS011;58993;45.320;11.864;2022-08-05T03:23:34;3.40;;;2.50;;
69551;SDS011;58993;45.320;11.864;2022-08-05T03:26:02;3.40;;;2.60;;
69551;SDS011;58993;45.320;11.864;2022-08-05T03:28:29;3.90;;;2.50;;
69551;SDS011;58993;45.320;11.864;2022-08-05T03:30:56;3.50;;;2.70;;
69551;SDS011;58993;45.320;11.864;2022-08-05T03:33:23;4.10;;;2.50;;
69551;SDS011;58993;45.320;11.864;2022-08-05T03:35:51;7.20;;;2.70;;
69551;SDS011;58993;45.320;11.864;2022-08-05T03:38:17;4.70;;;2.80;;
69551;SDS011;58993;45.320;11.864;2022-08-05T03:40:43;4.70;;;2.50;;
69551;SDS011;58993;45.320;11.864;2022-08-05T03:43:10;4.00;;;2.60;;
69551;SDS011;58993;45.320;11.864;2022-08-05T03:45:36;3.00;;;2.60;;
69551;SDS011;58993;45.320;11.864;2022-08-05T03:48:02;3.00;;;2.50;;
69551;SDS011;58993;45.320;11.864;2022-08-05T03:53:28;5.40;;;2.80;;
69551;SDS011;58993;45.320;11.864;2022-08-05T03:56:03;3.40;;;2.60;;
69551;SDS011;58993;45.320;11.864;2022-08-05T03:58:31;3.10;;;2.60;;
69551;SDS011;58993;45.320;11.864;2022-08-05T04:01:00;3.80;;;2.80;;
69551;SDS011;58993;45.320;11.864;2022-08-05T04:03:28;5.60;;;3.30;;
69551;SDS011;58993;45.320;11.864;2022-08-05T04:06:02;4.30;;;3.00;;
69551;SDS011;58993;45.320;11.864;2022-08-05T04:08:29;4.90;;;3.00;;
69551;SDS011;58993;45.320;11.864;2022-08-05T04:10:57;3.90;;;2.80;;
69551;SDS011;58993;45.320;11.864;2022-08-05T04:13:24;5.20;;;2.90;;
69551;SDS011;58993;45.320;11.864;2022-08-05T04:15:50;4.90;;;3.10;;
69551;SDS011;58993;45.320;11.864;2022-08-05T04:18:16;2.90;;;2.60;;
69551;SDS011;58993;45.320;11.864;2022-08-05T04:20:41;3.90;;;2.60;;
69551;SDS011;58993;45.320;11.864;2022-08-05T04:23:10;6.90;;;3.20;;
69551;SDS011;58993;45.320;11.864;2022-08-05T04:25:36;3.30;;;2.80;;
69551;SDS011;58993;45.320;11.864;2022-08-05T04:28:01;4.40;;;2.80;;
69551;SDS011;58993;45.320;11.864;2022-08-05T04:30:27;5.00;;;3.10;;
69551;SDS011;58993;45.320;11.864;2022-08-05T04:32:52;4.90;;;3.00;;
69551;SDS011;58993;45.320;11.864;2022-08-05T04:35:18;4.80;;;3.10;;
69551;SDS011;58993;45.320;11.864;2022-08-05T04:37:43;4.10;;;3.00;;
69551;SDS011;58993;45.320;11.864;2022-08-05T04:40:09;3.90;;;2.60;;
69551;SDS011;58993;45.320;11.864;2022-08-05T04:42:35;3.90;;;2.90;;
69551;SDS011;58993;45.320;11.864;2022-08-05T04:45:00;5.30;;;2.70;;
69551;SDS011;58993;45.320;11.864;2022-08-05T04:47:26;4.60;;;2.60;;
69551;SDS011;58993;45.320;11.864;2022-08-05T04:49:51;4.50;;;2.90;;
69551;SDS011;58993;45.320;11.864;2022-08-05T04:52:17;3.70;;;2.80;;
69551;SDS011;58993;45.320;11.864;2022-08-05T04:54:43;4.20;;;2.80;;
69551;SDS011;58993;45.320;11.864;2022-08-05T04:57:08;4.90;;;2.90;;
69551;SDS011;58993;45.320;11.864;2022-08-05T04:59:34;4.50;;;2.70;;
69551;SDS011;58993;45.320;11.864;2022-08-05T05:01:59;5.90;;;2.90;;
69551;SDS011;58993;45.320;11.864;2022-08-05T05:04:24;4.30;;;2.70;;
69551;SDS011;58993;45.320;11.864;2022-08-05T05:06:50;4.10;;;2.90;;
69551;SDS011;58993;45.320;11.864;2022-08-05T05:09:15;3.50;;;2.50;;
69551;SDS011;58993;45.320;11.864;2022-08-05T05:11:41;5.00;;;2.70;;
69551;SDS011;58993;45.320;11.864;2022-08-05T05:14:06;4.90;;;2.60;;
69551;SDS011;58993;45.320;11.864;2022-08-05T05:16:32;3.90;;;2.80;;
69551;SDS011;58993;45.320;11.864;2022-08-05T05:18:57;2.90;;;2.60;;
69551;SDS011;58993;45.320;11.864;2022-08-05T05:21:23;4.60;;;2.40;;
69551;SDS011;58993;45.320;11.864;2022-08-05T05:23:48;3.70;;;2.60;;
69551;SDS011;58993;45.320;11.864;2022-08-05T05:26:14;4.10;;;2.70;;
69551;SDS011;58993;45.320;11.864;2022-08-05T05:28:40;4.40;;;2.90;;
69551;SDS011;58993;45.320;11.864;2022-08-05T05:31:05;4.40;;;2.70;;
69551;SDS011;58993;45.320;11.864;2022-08-05T05:33:30;3.60;;;2.90;;
69551;SDS011;58993;45.320;11.864;2022-08-05T05:35:56;3.30;;;2.50;;
69551;SDS011;58993;45.320;11.864;2022-08-05T05:38:22;4.60;;;2.60;;
69551;SDS011;58993;45.320;11.864;2022-08-05T05:40:47;3.40;;;2.60;;
69551;SDS011;58993;45.320;11.864;2022-08-05T05:43:12;3.70;;;2.80;;
69551;SDS011;58993;45.320;11.864;2022-08-05T05:45:38;3.60;;;2.80;;
69551;SDS011;58993;45.320;11.864;2022-08-05T05:48:04;4.30;;;2.80;;
69551;SDS011;58993;45.320;11.864;2022-08-05T05:50:33;2.90;;;2.60;;
69551;SDS011;58993;45.320;11.864;2022-08-05T05:53:00;3.60;;;2.70;;
69551;SDS011;58993;45.320;11.864;2022-08-05T05:55:26;3.70;;;2.80;;
69551;SDS011;58993;45.320;11.864;2022-08-05T05:57:51;3.20;;;2.80;;
69551;SDS011;58993;45.320;11.864;2022-08-05T06:00:17;3.60;;;2.90;;
69551;SDS011;58993;45.320;11.864;2022-08-05T06:02:44;3.60;;;2.70;;
69551;SDS011;58993;45.320;11.864;2022-08-05T06:05:12;3.50;;;2.90;;
69551;SDS011;58993;45.320;11.864;2022-08-05T06:07:39;4.40;;;2.80;;
69551;SDS011;58993;45.320;11.864;2022-08-05T06:10:06;4.30;;;2.80;;
69551;SDS011;58993;45.320;11.864;2022-08-05T06:12:33;4.00;;;3.30;;
69551;SDS011;58993;45.320;11.864;2022-08-05T06:15:00;4.80;;;3.30;;
69551;SDS011;58993;45.320;11.864;2022-08-05T06:17:27;3.20;;;2.90;;
69551;SDS011;58993;45.320;11.864;2022-08-05T06:19:53;3.70;;;3.30;;
69551;SDS011;58993;45.320;11.864;2022-08-05T06:22:22;5.40;;;3.30;;
69551;SDS011;58993;45.320;11.864;2022-08-05T06:24:49;5.10;;;3.00;;
69551;SDS011;58993;45.320;11.864;2022-08-05T06:27:15;5.00;;;3.40;;
69551;SDS011;58993;45.320;11.864;2022-08-05T06:29:40;4.80;;;3.10;;
69551;SDS011;58993;45.320;11.864;2022-08-05T06:32:06;4.00;;;3.10;;
69551;SDS011;58993;45.320;11.864;2022-08-05T06:34:32;6.00;;;3.40;;
69551;SDS011;58993;45.320;11.864;2022-08-05T06:36:58;3.90;;;3.30;;
69551;SDS011;58993;45.320;11.864;2022-08-05T06:39:23;4.10;;;3.30;;
69551;SDS011;58993;45.320;11.864;2022-08-05T06:41:49;4.50;;;3.30;;
69551;SDS011;58993;45.320;11.864;2022-08-05T06:44:15;5.60;;;3.40;;
69551;SDS011;58993;45.320;11.864;2022-08-05T06:46:40;5.20;;;3.50;;
69551;SDS011;58993;45.320;11.864;2022-08-05T06:49:06;4.20;;;3.50;;
69551;SDS011;58993;45.320;11.864;2022-08-05T06:51:31;7.30;;;3.70;;
69551;SDS011;58993;45.320;11.864;2022-08-05T06:53:57;4.80;;;3.40;;
69551;SDS011;58993;45.320;11.864;2022-08-05T06:56:24;6.60;;;4.00;;
69551;SDS011;58993;45.320;11.864;2022-08-05T06:58:50;6.00;;;3.80;;
69551;SDS011;58993;45.320;11.864;2022-08-05T07:01:15;8.50;;;3.50;;
69551;SDS011;58993;45.320;11.864;2022-08-05T07:03:41;6.80;;;3.60;;
69551;SDS011;58993;45.320;11.864;2022-08-05T07:06:06;5.00;;;3.10;;
69551;SDS011;58993;45.320;11.864;2022-08-05T07:08:32;6.50;;;3.10;;
69551;SDS011;58993;45.320;11.864;2022-08-05T07:10:57;5.40;;;3.40;;
69551;SDS011;58993;45.320;11.864;2022-08-05T07:13:23;4.40;;;3.30;;
69551;SDS011;58993;45.320;11.864;2022-08-05T07:16:07;4.00;;;3.00;;
69551;SDS011;58993;45.320;11.864;2022-08-05T07:18:51;5.10;;;3.10;;
69551;SDS011;58993;45.320;11.864;2022-08-05T07:21:16;4.10;;;2.90;;
69551;SDS011;58993;45.320;11.864;2022-08-05T07:23:42;4.50;;;3.10;;
69551;SDS011;58993;45.320;11.864;2022-08-05T07:26:07;4.90;;;3.10;;
69551;SDS011;58993;45.320;11.864;2022-08-05T07:28:32;7.10;;;3.20;;
69551;SDS011;58993;45.320;11.864;2022-08-05T07:30:58;4.10;;;3.20;;
69551;SDS011;58993;45.320;11.864;2022-08-05T07:33:23;4.60;;;2.90;;
69551;SDS011;58993;45.320;11.864;2022-08-05T07:35:49;6.10;;;3.20;;
69551;SDS011;58993;45.320;11.864;2022-08-05T07:38:15;3.10;;;2.80;;
69551;SDS011;58993;45.320;11.864;2022-08-05T07:40:41;5.40;;;2.80;;
69551;SDS011;58993;45.320;11.864;2022-08-05T07:43:08;4.20;;;3.00;;
69551;SDS011;58993;45.320;11.864;2022-08-05T07:45:34;5.00;;;2.60;;
69551;SDS011;58993;45.320;11.864;2022-08-05T07:48:00;3.10;;;2.80;;
69551;SDS011;58993;45.320;11.864;2022-08-05T07:50:26;3.50;;;2.70;;
69551;SDS011;58993;45.320;11.864;2022-08-05T07:52:52;6.30;;;3.20;;
69551;SDS011;58993;45.320;11.864;2022-08-05T07:55:17;3.50;;;2.70;;
69551;SDS011;58993;45.320;11.864;2022-08-05T07:57:42;3.70;;;2.70;;
69551;SDS011;58993;45.320;11.864;2022-08-05T08:00:08;3.30;;;2.90;;
69551;SDS011;58993;45.320;11.864;2022-08-05T08:02:34;3.70;;;2.70;;
69551;SDS011;58993;45.320;11.864;2022-08-05T08:05:00;5.90;;;3.10;;
69551;SDS011;58993;45.320;11.864;2022-08-05T08:07:26;3.90;;;2.80;;
69551;SDS011;58993;45.320;11.864;2022-08-05T08:09:52;3.60;;;2.50;;
69551;SDS011;58993;45.320;11.864;2022-08-05T08:12:17;4.30;;;3.40;;
69551;SDS011;58993;45.320;11.864;2022-08-05T08:14:45;3.10;;;2.60;;
69551;SDS011;58993;45.320;11.864;2022-08-05T08:17:10;3.10;;;2.80;;
69551;SDS011;58993;45.320;11.864;2022-08-05T08:19:36;3.10;;;2.50;;
69551;SDS011;58993;45.320;11.864;2022-08-05T08:22:02;3.70;;;2.70;;
69551;SDS011;58993;45.320;11.864;2022-08-05T08:24:28;3.70;;;2.60;;
69551;SDS011;58993;45.320;11.864;2022-08-05T08:26:54;4.00;;;2.80;;
69551;SDS011;58993;45.320;11.864;2022-08-05T08:29:20;3.00;;;2.70;;
69551;SDS011;58993;45.320;11.864;2022-08-05T08:31:45;4.50;;;2.80;;
69551;SDS011;58993;45.320;11.864;2022-08-05T08:34:11;3.90;;;2.70;;
69551;SDS011;58993;45.320;11.864;2022-08-05T08:36:37;3.20;;;2.40;;
69551;SDS011;58993;45.320;11.864;2022-08-05T08:39:03;3.50;;;2.50;;
69551;SDS011;58993;45.320;11.864;2022-08-05T08:41:29;3.90;;;2.50;;
69551;SDS011;58993;45.320;11.864;2022-08-05T08:43:57;5.30;;;2.90;;
69551;SDS011;58993;45.320;11.864;2022-08-05T08:46:24;2.90;;;2.50;;
69551;SDS011;58993;45.320;11.864;2022-08-05T08:48:55;4.20;;;2.60;;
69551;SDS011;58993;45.320;11.864;2022-08-05T08:51:21;5.10;;;2.60;;
69551;SDS011;58993;45.320;11.864;2022-08-05T08:53:48;4.80;;;2.70;;
69551;SDS011;58993;45.320;11.864;2022-08-05T08:56:14;3.80;;;2.60;;
69551;SDS011;58993;45.320;11.864;2022-08-05T08:58:41;3.00;;;2.40;;
69551;SDS011;58993;45.320;11.864;2022-08-05T09:01:07;4.40;;;2.60;;
69551;SDS011;58993;45.320;11.864;2022-08-05T09:03:34;3.60;;;2.50;;
69551;SDS011;58993;45.320;11.864;2022-08-05T09:06:00;2.70;;;2.20;;
69551;SDS011;58993;45.320;11.864;2022-08-05T09:08:25;3.60;;;2.50;;
69551;SDS011;58993;45.320;11.864;2022-08-05T09:10:51;4.80;;;2.30;;
69551;SDS011;58993;45.320;11.864;2022-08-05T09:13:17;3.50;;;2.30;;
69551;SDS011;58993;45.320;11.864;2022-08-05T09:15:43;2.90;;;2.30;;
69551;SDS011;58993;45.320;11.864;2022-08-05T09:18:10;4.80;;;2.50;;
69551;SDS011;58993;45.320;11.864;2022-08-05T09:20:35;3.70;;;2.60;;
69551;SDS011;58993;45.320;11.864;2022-08-05T09:25:39;5.10;;;2.50;;
69551;SDS011;58993;45.320;11.864;2022-08-05T09:28:22;5.50;;;2.10;;
69551;SDS011;58993;45.320;11.864;2022-08-05T09:33:28;2.80;;;2.40;;
69551;SDS011;58993;45.320;11.864;2022-08-05T09:35:58;4.70;;;2.50;;
69551;SDS011;58993;45.320;11.864;2022-08-05T09:38:29;3.00;;;2.20;;
69551;SDS011;58993;45.320;11.864;2022-08-05T09:41:04;4.50;;;2.50;;
69551;SDS011;58993;45.320;11.864;2022-08-05T09:43:32;2.20;;;2.00;;
69551;SDS011;58993;45.320;11.864;2022-08-05T09:46:02;3.60;;;2.20;;
69551;SDS011;58993;45.320;11.864;2022-08-05T09:48:31;2.50;;;2.20;;
69551;SDS011;58993;45.320;11.864;2022-08-05T09:51:00;3.70;;;2.40;;
69551;SDS011;58993;45.320;11.864;2022-08-05T09:53:27;4.20;;;2.60;;
69551;SDS011;58993;45.320;11.864;2022-08-05T09:55:58;3.10;;;1.90;;
69551;SDS011;58993;45.320;11.864;2022-08-05T09:58:24;3.30;;;2.10;;
69551;SDS011;58993;45.320;11.864;2022-08-05T10:00:51;2.40;;;2.10;;
69551;SDS011;58993;45.320;11.864;2022-08-05T10:03:36;2.90;;;2.10;;
69551;SDS011;58993;45.320;11.864;2022-08-05T10:08:32;2.10;;;1.90;;
69551;SDS011;58993;45.320;11.864;2022-08-05T10:10:58;2.80;;;2.00;;
69551;SDS011;58993;45.320;11.864;2022-08-05T10:13:30;2.50;;;2.00;;
69551;SDS011;58993;45.320;11.864;2022-08-05T10:16:04;2.10;;;1.90;;
69551;SDS011;58993;45.320;11.864;2022-08-05T10:18:31;2.40;;;2.00;;
69551;SDS011;58993;45.320;11.864;2022-08-05T10:20:59;2.10;;;1.90;;
69551;SDS011;58993;45.320;11.864;2022-08-05T10:23:35;3.20;;;2.10;;
69551;SDS011;58993;45.320;11.864;2022-08-05T10:26:06;2.30;;;1.90;;
69551;SDS011;58993;45.320;11.864;2022-08-05T10:28:34;2.00;;;1.80;;
69551;SDS011;58993;45.320;11.864;2022-08-05T10:31:00;2.50;;;2.00;;
69551;SDS011;58993;45.320;11.864;2022-08-05T10:33:27;2.60;;;2.00;;
69551;SDS011;58993;45.320;11.864;2022-08-05T10:35:55;3.30;;;2.00;;
69551;SDS011;58993;45.320;11.864;2022-08-05T10:38:22;2.70;;;2.20;;
69551;SDS011;58993;45.320;11.864;2022-08-05T10:45:57;2.10;;;1.90;;
69551;SDS011;58993;45.320;11.864;2022-08-05T10:48:37;2.60;;;1.70;;
69551;SDS011;58993;45.320;11.864;2022-08-05T10:51:24;2.20;;;1.80;;
69551;SDS011;58993;45.320;11.864;2022-08-05T10:56:16;3.20;;;2.00;;
69551;SDS011;58993;45.320;11.864;2022-08-05T11:01:26;3.20;;;1.80;;
69551;SDS011;58993;45.320;11.864;2022-08-05T11:04:07;2.80;;;1.80;;
69551;SDS011;58993;45.320;11.864;2022-08-05T11:15:03;3.10;;;2.00;;
69551;SDS011;58993;45.320;11.864;2022-08-05T11:17:31;3.20;;;2.50;;
69551;SDS011;58993;45.320;11.864;2022-08-05T11:20:01;3.70;;;2.40;;
69551;SDS011;58993;45.320;11.864;2022-08-05T11:22:38;3.90;;;2.30;;
69551;SDS011;58993;45.320;11.864;2022-08-05T11:25:27;4.20;;;2.40;;
69551;SDS011;58993;45.320;11.864;2022-08-05T11:27:53;3.10;;;2.70;;
69551;SDS011;58993;45.320;11.864;2022-08-05T11:30:19;3.10;;;2.80;;
69551;SDS011;58993;45.320;11.864;2022-08-05T11:32:45;3.50;;;2.80;;
69551;SDS011;58993;45.320;11.864;2022-08-05T11:41:26;3.80;;;2.60;;
69551;SDS011;58993;45.320;11.864;2022-08-05T11:44:02;3.50;;;2.60;;
69551;SDS011;58993;45.320;11.864;2022-08-05T11:46:41;3.50;;;2.70;;
69551;SDS011;58993;45.320;11.864;2022-08-05T11:49:11;3.00;;;2.60;;
69551;SDS011;58993;45.320;11.864;2022-08-05T11:51:46;3.40;;;2.60;;
69551;SDS011;58993;45.320;11.864;2022-08-05T11:54:13;2.70;;;2.50;;
69551;SDS011;58993;45.320;11.864;2022-08-05T11:56:46;3.70;;;2.60;;
69551;SDS011;58993;45.320;11.864;2022-08-05T11:59:16;2.60;;;2.40;;
69551;SDS011;58993;45.320;11.864;2022-08-05T12:04:27;3.80;;;2.80;;
69551;SDS011;58993;45.320;11.864;2022-08-05T12:07:01;8.00;;;2.60;;
69551;SDS011;58993;45.320;11.864;2022-08-05T12:09:27;3.40;;;2.40;;
69551;SDS011;58993;45.320;11.864;2022-08-05T12:11:54;3.90;;;2.60;;
69551;SDS011;58993;45.320;11.864;2022-08-05T12:14:20;4.30;;;2.70;;
69551;SDS011;58993;45.320;11.864;2022-08-05T12:16:46;3.20;;;2.30;;
69551;SDS011;58993;45.320;11.864;2022-08-05T12:19:12;3.10;;;2.60;;
69551;SDS011;58993;45.320;11.864;2022-08-05T12:21:43;2.60;;;2.40;;
69551;SDS011;58993;45.320;11.864;2022-08-05T12:24:13;2.70;;;2.40;;
69551;SDS011;58993;45.320;11.864;2022-08-05T12:26:47;2.60;;;2.30;;
69551;SDS011;58993;45.320;11.864;2022-08-05T12:29:18;3.20;;;2.40;;
69551;SDS011;58993;45.320;11.864;2022-08-05T12:31:52;2.90;;;2.40;;
69551;SDS011;58993;45.320;11.864;2022-08-05T12:34:19;3.70;;;2.40;;
69551;SDS011;58993;45.320;11.864;2022-08-05T12:36:52;3.80;;;2.30;;
69551;SDS011;58993;45.320;11.864;2022-08-05T12:39:19;3.40;;;2.20;;
69551;SDS011;58993;45.320;11.864;2022-08-05T12:41:45;2.50;;;2.20;;
69551;SDS011;58993;45.320;11.864;2022-08-05T12:44:12;3.00;;;2.70;;
69551;SDS011;58993;45.320;11.864;2022-08-05T12:46:39;3.10;;;2.50;;
69551;SDS011;58993;45.320;11.864;2022-08-05T12:49:10;2.50;;;2.30;;
69551;SDS011;58993;45.320;11.864;2022-08-05T12:54:23;3.00;;;2.40;;
69551;SDS011;58993;45.320;11.864;2022-08-05T12:56:57;3.20;;;2.30;;
69551;SDS011;58993;45.320;11.864;2022-08-05T12:59:28;2.90;;;2.50;;
69551;SDS011;58993;45.320;11.864;2022-08-05T13:04:29;4.80;;;2.40;;
69551;SDS011;58993;45.320;11.864;2022-08-05T13:07:09;3.60;;;2.50;;
69551;SDS011;58993;45.320;11.864;2022-08-05T13:09:40;3.80;;;2.30;;
69551;SDS011;58993;45.320;11.864;2022-08-05T13:14:54;2.80;;;2.30;;
69551;SDS011;58993;45.320;11.864;2022-08-05T13:17:25;2.80;;;2.10;;
69551;SDS011;58993;45.320;11.864;2022-08-05T13:22:27;2.80;;;2.40;;
69551;SDS011;58993;45.320;11.864;2022-08-05T13:24:53;2.30;;;1.90;;
69551;SDS011;58993;45.320;11.864;2022-08-05T13:29:51;2.30;;;2.10;;
69551;SDS011;58993;45.320;11.864;2022-08-05T13:32:16;2.80;;;2.40;;
69551;SDS011;58993;45.320;11.864;2022-08-05T13:34:41;2.40;;;2.20;;
69551;SDS011;58993;45.320;11.864;2022-08-05T13:37:07;3.90;;;2.20;;
69551;SDS011;58993;45.320;11.864;2022-08-05T13:39:32;2.70;;;2.00;;
69551;SDS011;58993;45.320;11.864;2022-08-05T13:41:58;2.30;;;2.10;;
69551;SDS011;58993;45.320;11.864;2022-08-05T13:44:23;3.80;;;2.10;;
69551;SDS011;58993;45.320;11.864;2022-08-05T13:46:49;2.50;;;2.10;;
69551;SDS011;58993;45.320;11.864;2022-08-05T13:49:14;3.30;;;2.40;;
69551;SDS011;58993;45.320;11.864;2022-08-05T13:51:40;2.60;;;2.30;;
69551;SDS011;58993;45.320;11.864;2022-08-05T13:54:07;2.30;;;2.10;;
69551;SDS011;58993;45.320;11.864;2022-08-05T13:56:33;2.30;;;2.00;;
69551;SDS011;58993;45.320;11.864;2022-08-05T13:58:58;3.50;;;2.30;;
69551;SDS011;58993;45.320;11.864;2022-08-05T14:01:24;2.60;;;2.40;;
69551;SDS011;58993;45.320;11.864;2022-08-05T14:03:49;2.80;;;2.20;;
69551;SDS011;58993;45.320;11.864;2022-08-05T14:06:34;3.80;;;2.50;;
69551;SDS011;58993;45.320;11.864;2022-08-05T14:09:01;3.00;;;2.20;;
69551;SDS011;58993;45.320;11.864;2022-08-05T14:11:27;2.70;;;2.30;;
69551;SDS011;58993;45.320;11.864;2022-08-05T14:13:53;2.50;;;2.00;;
69551;SDS011;58993;45.320;11.864;2022-08-05T14:16:18;2.70;;;2.10;;
69551;SDS011;58993;45.320;11.864;2022-08-05T14:18:44;3.30;;;2.30;;
69551;SDS011;58993;45.320;11.864;2022-08-05T14:21:09;2.40;;;2.20;;
69551;SDS011;58993;45.320;11.864;2022-08-05T14:23:35;3.10;;;2.20;;
69551;SDS011;58993;45.320;11.864;2022-08-05T14:26:00;2.90;;;2.00;;
69551;SDS011;58993;45.320;11.864;2022-08-05T14:28:26;2.90;;;2.10;;
69551;SDS011;58993;45.320;11.864;2022-08-05T14:30:53;3.00;;;2.30;;
69551;SDS011;58993;45.320;11.864;2022-08-05T14:33:19;2.40;;;2.20;;
69551;SDS011;58993;45.320;11.864;2022-08-05T14:35:44;2.60;;;2.40;;
69551;SDS011;58993;45.320;11.864;2022-08-05T14:38:09;2.80;;;2.20;;
69551;SDS011;58993;45.320;11.864;2022-08-05T14:40:35;3.00;;;2.20;;
69551;SDS011;58993;45.320;11.864;2022-08-05T14:43:00;2.50;;;2.20;;
69551;SDS011;58993;45.320;11.864;2022-08-05T14:45:26;2.90;;;2.10;;
69551;SDS011;58993;45.320;11.864;2022-08-05T14:47:51;2.90;;;2.30;;
69551;SDS011;58993;45.320;11.864;2022-08-05T14:50:17;2.80;;;2.10;;
69551;SDS011;58993;45.320;11.864;2022-08-05T14:52:42;2.50;;;2.10;;
69551;SDS011;58993;45.320;11.864;2022-08-05T14:55:07;3.10;;;2.40;;
69551;SDS011;58993;45.320;11.864;2022-08-05T14:57:33;2.60;;;2.40;;
69551;SDS011;58993;45.320;11.864;2022-08-05T14:59:59;2.40;;;2.20;;
69551;SDS011;58993;45.320;11.864;2022-08-05T15:02:24;2.50;;;2.30;;
69551;SDS011;58993;45.320;11.864;2022-08-05T15:04:50;2.90;;;2.20;;
69551;SDS011;58993;45.320;11.864;2022-08-05T15:07:15;3.90;;;2.40;;
69551;SDS011;58993;45.320;11.864;2022-08-05T15:09:41;3.10;;;2.30;;
69551;SDS011;58993;45.320;11.864;2022-08-05T15:12:07;2.20;;;2.00;;
69551;SDS011;58993;45.320;11.864;2022-08-05T15:14:33;3.40;;;2.20;;
69551;SDS011;58993;45.320;11.864;2022-08-05T15:16:58;3.00;;;2.30;;
69551;SDS011;58993;45.320;11.864;2022-08-05T15:19:24;4.00;;;2.30;;
69551;SDS011;58993;45.320;11.864;2022-08-05T15:21:49;2.70;;;2.40;;
69551;SDS011;58993;45.320;11.864;2022-08-05T15:24:15;2.90;;;2.40;;
69551;SDS011;58993;45.320;11.864;2022-08-05T15:26:40;4.50;;;2.20;;
69551;SDS011;58993;45.320;11.864;2022-08-05T15:29:06;4.20;;;2.40;;
69551;SDS011;58993;45.320;11.864;2022-08-05T15:31:31;2.80;;;2.10;;
69551;SDS011;58993;45.320;11.864;2022-08-05T15:33:57;2.40;;;2.20;;
69551;SDS011;58993;45.320;11.864;2022-08-05T15:36:22;3.60;;;2.50;;
69551;SDS011;58993;45.320;11.864;2022-08-05T15:38:47;3.30;;;2.40;;
69551;SDS011;58993;45.320;11.864;2022-08-05T15:41:13;3.00;;;2.40;;